Time;durP1;ratioP1;P1;durP2;ratioP2;P2;SDS_P1;SDS_P2;PMS_P1;PMS_P2;Temp;Humidity;BMP_temperature;BMP_pressure;BME280_temperature;BME280_humidity;BME280_pressure;Samples;Min_cycle;Max_cycle;Signal;HPM_P1;HPM_P2
2022/08/06 00:02:23;;;;;;;4.72;1.90;;;;;;;14.96;77.14;102729.00;4970701;28;20113;-64
2022/08/06 00:04:49;;;;;;;3.60;1.57;;;;;;;14.89;77.22;102731.78;4972026;28;20592;-63
2022/08/06 00:07:15;;;;;;;9.45;1.70;;;;;;;14.83;77.44;102726.59;4970525;28;20078;-63
2022/08/06 00:09:40;;;;;;;4.70;1.52;;;;;;;14.83;77.74;102726.59;4971816;28;20069;-64
2022/08/06 00:12:06;;;;;;;6.28;1.80;;;;;;;14.79;77.73;102735.53;4971762;28;20055;-63
2022/08/06 00:14:32;;;;;;;7.68;1.50;;;;;;;14.80;77.95;102737.28;4971381;28;20134;-64
2022/08/06 00:16:57;;;;;;;6.80;1.60;;;;;;;14.83;77.86;102734.56;4971854;28;20661;-64
2022/08/06 00:19:23;;;;;;;7.68;1.63;;;;;;;14.90;77.31;102737.97;4970360;28;20679;-62
2022/08/06 00:21:49;;;;;;;4.90;1.50;;;;;;;14.92;77.61;102738.78;4967267;28;20035;-64
2022/08/06 00:24:15;;;;;;;5.82;1.77;;;;;;;14.87;77.36;102738.03;4968401;28;20113;-64
2022/08/06 00:26:40;;;;;;;5.35;1.55;;;;;;;14.87;77.29;102738.91;4967960;28;20122;-62
2022/08/06 00:29:06;;;;;;;4.57;1.88;;;;;;;14.92;77.28;102746.75;4968788;28;20390;-64
2022/08/06 00:31:31;;;;;;;8.40;2.05;;;;;;;14.88;77.28;102745.97;4967347;28;20062;-63
2022/08/06 00:34:00;;;;;;;5.93;1.77;;;;;;;14.89;77.24;102752.13;4968579;28;20106;-64
2022/08/06 00:36:26;;;;;;;6.05;1.65;;;;;;;14.93;76.92;102755.59;4967164;28;20037;-63
2022/08/06 00:38:52;;;;;;;7.00;1.50;;;;;;;14.95;76.97;102752.00;4967740;28;20023;-64
2022/08/06 00:41:18;;;;;;;2.67;1.40;;;;;;;14.93;76.89;102758.25;4948865;29;20019;-64
2022/08/06 00:43:43;;;;;;;5.93;1.48;;;;;;;14.99;76.39;102760.78;4930960;29;20101;-64
2022/08/06 00:46:09;;;;;;;9.05;2.22;;;;;;;15.01;76.24;102767.81;4930774;28;20078;-63
2022/08/06 00:48:34;;;;;;;6.70;1.80;;;;;;;15.03;75.87;102770.44;4949344;29;20028;-64
2022/08/06 00:51:00;;;;;;;8.57;1.95;;;;;;;15.07;75.75;102769.44;4947234;29;20027;-64
2022/08/06 00:53:25;;;;;;;5.82;1.40;;;;;;;15.07;75.71;102765.91;4931653;29;20122;-63
2022/08/06 00:55:50;;;;;;;6.65;1.42;;;;;;;15.07;75.36;102776.53;4948858;29;20050;-64
2022/08/06 00:58:16;;;;;;;8.93;2.05;;;;;;;15.08;75.42;102765.88;4948626;29;20116;-64
2022/08/06 01:00:41;;;;;;;6.65;1.83;;;;;;;15.03;75.60;102770.44;4962031;28;20077;-64
2022/08/06 01:03:07;;;;;;;6.70;1.85;;;;;;;14.96;75.89;102777.63;4950878;28;20055;-64
2022/08/06 01:05:32;;;;;;;9.27;1.92;;;;;;;14.91;76.32;102772.41;4966689;28;20038;-63
2022/08/06 01:07:58;;;;;;;4.10;1.60;;;;;;;14.93;76.23;102780.34;4967681;28;20053;-63
2022/08/06 01:10:23;;;;;;;5.47;1.77;;;;;;;14.97;76.31;102770.56;4967523;28;20755;-63
2022/08/06 01:12:48;;;;;;;4.75;1.60;;;;;;;14.95;76.25;102777.66;4967914;28;20035;-63
2022/08/06 01:15:14;;;;;;;9.10;1.88;;;;;;;14.94;76.04;102778.56;4949381;28;20074;-64
2022/08/06 01:17:47;;;;;;;5.85;1.85;;;;;;;14.88;76.62;102775.16;4967428;28;20058;-62
2022/08/06 01:20:31;;;;;;;4.47;1.90;;;;;;;14.86;77.00;102779.63;4965140;28;20081;-63
2022/08/06 01:23:08;;;;;;;7.93;2.13;;;;;;;14.86;77.10;102784.94;4967778;28;20027;-63
2022/08/06 01:25:59;;;;;;;5.00;2.15;;;;;;;14.85;77.20;102783.19;4967716;28;20646;-63
2022/08/06 01:28:28;;;;;;;6.03;1.95;;;;;;;14.85;77.09;102788.50;4949501;28;20434;-63
2022/08/06 01:31:06;;;;;;;8.32;2.28;;;;;;;14.83;76.74;102785.00;4950148;28;20026;-64
2022/08/06 01:33:42;;;;;;;4.75;1.98;;;;;;;14.78;76.97;102785.09;4966598;28;20034;-64
2022/08/06 01:36:11;;;;;;;4.30;2.00;;;;;;;14.70;77.08;102784.34;4966668;28;20042;-63
2022/08/06 01:38:48;;;;;;;;;;;;;;;14.60;77.46;102782.78;4950503;28;20031;-63
2022/08/06 01:41:38;;;;;;;6.82;1.92;;;;;;;14.52;77.69;102782.94;4949181;28;21195;-63
2022/08/06 01:44:04;;;;;;;7.45;2.67;;;;;;;14.35;78.73;102783.22;4952998;28;20046;-63
2022/08/06 01:46:30;;;;;;;6.15;2.30;;;;;;;14.24;79.23;102786.97;4948729;28;20027;-63
2022/08/06 01:48:56;;;;;;;6.63;2.20;;;;;;;14.22;79.50;102790.56;4949974;28;20066;-67
2022/08/06 01:51:22;;;;;;;8.60;2.55;;;;;;;14.18;79.29;102787.06;4948652;28;20023;-65
2022/08/06 01:53:48;;;;;;;4.85;2.30;;;;;;;14.11;79.68;102788.09;4949543;28;20120;-62
2022/08/06 01:56:14;;;;;;;8.05;2.10;;;;;;;14.10;79.78;102789.00;4966221;28;20062;-64
2022/08/06 01:58:42;;;;;;;3.47;1.77;;;;;;;14.06;79.93;102782.00;4949755;28;20651;-64
2022/08/06 02:01:11;;;;;;;5.03;2.20;;;;;;;14.00;80.55;102791.78;4948708;28;20019;-62
2022/08/06 02:03:44;;;;;;;5.10;1.90;;;;;;;13.95;81.14;102790.13;4949733;28;20045;-64
2022/08/06 02:06:12;;;;;;;4.53;1.98;;;;;;;13.90;81.45;102798.16;4948356;28;20038;-64
2022/08/06 02:08:40;;;;;;;5.35;2.40;;;;;;;13.90;81.41;102792.84;4949340;28;20061;-63
2022/08/06 02:11:07;;;;;;;5.53;2.03;;;;;;;13.92;81.32;102792.81;4949051;28;20044;-63
2022/08/06 02:13:33;;;;;;;9.63;2.20;;;;;;;13.88;81.73;102789.38;4966421;28;20205;-64
2022/08/06 02:16:01;;;;;;;8.43;2.00;;;;;;;13.83;81.79;102789.44;4949160;28;20109;-64
2022/08/06 02:18:29;;;;;;;6.88;1.85;;;;;;;13.79;82.31;102790.41;4948742;28;20019;-63
2022/08/06 02:20:56;;;;;;;3.53;1.88;;;;;;;13.75;82.57;102788.69;4948541;28;20039;-63
2022/08/06 02:23:23;;;;;;;5.80;2.13;;;;;;;13.72;82.78;102784.31;4965442;28;20043;-64
2022/08/06 02:25:50;;;;;;;9.02;2.30;;;;;;;13.68;82.78;102787.91;4966526;28;20776;-64
2022/08/06 02:28:17;;;;;;;9.85;2.28;;;;;;;13.64;83.05;102787.06;4965607;28;20054;-64
2022/08/06 02:30:44;;;;;;;4.15;1.95;;;;;;;13.63;83.08;102787.97;4966186;28;20030;-65
2022/08/06 02:33:11;;;;;;;9.57;2.10;;;;;;;13.60;83.33;102782.72;4946756;28;20031;-64
2022/08/06 02:35:40;;;;;;;6.25;2.30;;;;;;;13.61;83.52;102787.13;4965316;28;20092;-64
2022/08/06 02:38:13;;;;;;;6.05;2.13;;;;;;;13.60;83.84;102790.69;4947983;28;20026;-66
2022/08/06 02:40:43;;;;;;;8.75;2.03;;;;;;;13.62;83.90;102795.94;4948938;28;20465;-64
2022/08/06 02:43:14;;;;;;;3.58;1.80;;;;;;;13.59;84.08;102798.66;4946953;28;20034;-64
2022/08/06 02:45:49;;;;;;;6.05;1.77;;;;;;;13.59;84.00;102796.00;4947951;28;20030;-64
2022/08/06 02:48:21;;;;;;;5.60;1.92;;;;;;;13.57;84.17;102796.03;4948440;28;20045;-64
2022/08/06 02:50:48;;;;;;;4.72;2.13;;;;;;;13.59;84.05;102796.88;4947466;28;20387;-65
2022/08/06 02:53:17;;;;;;;7.45;1.70;;;;;;;13.59;84.35;102804.81;4948701;28;20022;-64
2022/08/06 02:55:46;;;;;;;7.07;2.00;;;;;;;13.59;84.66;102804.81;4959738;28;20514;-65
2022/08/06 02:58:19;;;;;;;3.72;1.73;;;;;;;13.58;84.94;102797.75;4946640;28;20023;-63
2022/08/06 03:00:47;;;;;;;5.50;2.00;;;;;;;13.58;85.03;102807.50;4945980;28;20038;-63
2022/08/06 03:03:14;;;;;;;4.80;1.65;;;;;;;13.57;85.08;102809.25;4929335;28;20055;-64
2022/08/06 03:05:42;;;;;;;5.10;2.30;;;;;;;13.57;85.21;102803.97;4928518;29;20023;-63
2022/08/06 03:08:09;;;;;;;6.75;2.42;;;;;;;13.55;85.78;102805.78;4929633;29;20131;-62
2022/08/06 03:10:35;;;;;;;6.38;2.30;;;;;;;13.49;85.67;102805.84;4941166;28;20454;-63
2022/08/06 03:13:01;;;;;;;3.70;1.77;;;;;;;13.51;85.58;102807.59;4966082;28;20037;-64
2022/08/06 03:15:28;;;;;;;6.25;2.28;;;;;;;13.49;85.81;102814.66;4947589;28;20432;-65
2022/08/06 03:17:58;;;;;;;9.40;2.28;;;;;;;13.44;86.08;102807.66;4965737;28;20485;-65
2022/08/06 03:20:24;;;;;;;5.22;1.85;;;;;;;13.43;85.87;102814.75;4964537;28;20477;-63
2022/08/06 03:22:52;;;;;;;5.28;2.10;;;;;;;13.40;86.14;102814.78;4964268;28;20066;-65
2022/08/06 03:25:18;;;;;;;6.75;2.40;;;;;;;13.39;86.14;102808.59;4965437;28;20384;-64
2022/08/06 03:27:44;;;;;;;9.60;5.22;;;;;;;13.36;86.08;102803.34;4947412;28;20035;-63
2022/08/06 03:30:14;;;;;;;7.30;5.45;;;;;;;13.34;86.16;102804.28;4965642;28;20113;-64
2022/08/06 03:32:40;;;;;;;11.85;4.93;;;;;;;13.31;86.29;102813.16;4965126;28;20058;-63
2022/08/06 03:35:06;;;;;;;5.18;3.60;;;;;;;13.31;86.42;102806.97;4948062;28;20023;-63
2022/08/06 03:37:33;;;;;;;10.10;3.33;;;;;;;13.29;86.74;102814.94;4964596;28;20034;-64
2022/08/06 03:39:59;;;;;;;4.85;2.50;;;;;;;13.36;86.57;102818.34;4948222;28;20054;-64
2022/08/06 03:42:25;;;;;;;4.60;2.50;;;;;;;13.39;86.81;102819.19;4964698;28;20035;-63
2022/08/06 03:44:50;;;;;;;6.18;2.22;;;;;;;13.46;86.28;102819.13;4964530;28;20030;-63
2022/08/06 03:47:25;;;;;;;4.70;2.28;;;;;;;13.44;86.21;102821.78;4965287;28;20110;-65
2022/08/06 03:49:56;;;;;;;2.20;1.88;;;;;;;13.46;86.32;102829.72;4946926;28;20011;-65
2022/08/06 03:52:24;;;;;;;5.65;2.10;;;;;;;13.42;86.24;102828.88;4947799;28;20035;-64
2022/08/06 03:54:53;;;;;;;6.47;2.42;;;;;;;13.43;86.50;102825.34;4949854;28;20011;-64
2022/08/06 03:57:21;;;;;;;6.03;2.65;;;;;;;13.44;86.80;102827.09;4968850;28;20027;-64
2022/08/06 03:59:47;;;;;;;5.70;2.38;;;;;;;13.40;86.97;102831.53;4951046;28;20039;-64
2022/08/06 04:02:14;;;;;;;9.57;2.92;;;;;;;13.37;86.94;102831.56;4951101;28;20046;-63
2022/08/06 04:04:40;;;;;;;6.53;2.60;;;;;;;13.36;86.91;102837.78;4941245;29;20054;-63
2022/08/06 04:07:05;;;;;;;8.50;2.60;;;;;;;13.31;87.12;102839.63;4932775;29;20458;-64
2022/08/06 04:09:32;;;;;;;7.95;2.70;;;;;;;13.25;86.90;102843.19;4931747;29;20038;-63
2022/08/06 04:11:59;;;;;;;6.80;2.40;;;;;;;13.29;86.88;102846.69;4932606;29;20796;-63
2022/08/06 04:14:24;;;;;;;6.03;2.30;;;;;;;13.33;86.88;102855.50;4960833;28;20027;-62
2022/08/06 04:16:50;;;;;;;8.93;2.10;;;;;;;13.32;86.66;102844.00;4948308;28;20057;-64
2022/08/06 04:19:18;;;;;;;7.13;2.00;;;;;;;13.43;86.88;102840.34;4967177;28;20027;-63
2022/08/06 04:21:44;;;;;;;8.68;2.50;;;;;;;13.51;86.84;102847.31;4947713;28;20504;-64
2022/08/06 04:24:10;;;;;;;8.20;2.63;;;;;;;13.52;86.42;102842.91;4949345;28;20034;-63
2022/08/06 04:26:37;;;;;;;5.82;2.05;;;;;;;13.54;86.22;102842.88;4967721;28;20038;-63
2022/08/06 04:29:03;;;;;;;8.38;2.33;;;;;;;13.53;85.93;102844.66;4967152;28;20038;-64
2022/08/06 04:31:29;;;;;;;5.57;2.30;;;;;;;13.53;86.25;102847.28;4966731;28;20508;-63
2022/08/06 04:33:55;;;;;;;7.55;2.42;;;;;;;13.53;86.03;102852.59;4949962;28;20034;-64
2022/08/06 04:36:20;;;;;;;5.07;2.15;;;;;;;13.51;86.25;102849.97;4966315;28;20019;-63
2022/08/06 04:38:46;;;;;;;6.32;2.20;;;;;;;13.55;85.69;102844.63;4966488;28;20041;-65
2022/08/06 04:41:12;;;;;;;4.72;2.30;;;;;;;13.60;85.80;102843.66;4966743;28;20517;-64
2022/08/06 04:43:37;;;;;;;3.10;2.13;;;;;;;13.63;85.80;102846.25;4950554;28;20042;-62
2022/08/06 04:46:03;;;;;;;3.47;2.10;;;;;;;13.68;85.54;102853.25;4951111;28;20034;-64
2022/08/06 04:48:28;;;;;;;7.93;2.05;;;;;;;13.69;85.64;102847.09;4948902;28;20110;-63
2022/08/06 04:50:54;;;;;;;6.90;2.30;;;;;;;13.76;85.32;102849.59;4944792;28;20022;-65
2022/08/06 04:53:19;;;;;;;3.85;2.10;;;;;;;13.86;85.12;102845.03;4940878;28;20038;-64
2022/08/06 04:55:46;;;;;;;6.70;2.00;;;;;;;13.96;84.63;102850.19;4951043;28;20018;-64
2022/08/06 04:58:12;;;;;;;6.75;1.77;;;;;;;13.98;84.42;102856.34;4964800;28;20027;-63
2022/08/06 05:00:40;;;;;;;4.43;1.80;;;;;;;14.00;84.38;102865.16;4966089;28;20081;-63
2022/08/06 05:03:06;;;;;;;6.70;2.10;;;;;;;13.99;84.32;102866.03;4964012;28;20093;-63
2022/08/06 05:05:37;;;;;;;8.05;2.22;;;;;;;14.00;84.37;102867.81;4965510;28;20022;-63
2022/08/06 05:08:05;;;;;;;7.93;2.20;;;;;;;14.05;84.32;102865.94;4949155;28;20505;-63
2022/08/06 05:10:35;;;;;;;3.90;2.30;;;;;;;14.13;83.86;102868.47;4948718;28;20030;-63
2022/08/06 05:13:01;;;;;;;5.78;2.10;;;;;;;14.16;83.59;102863.13;4965890;28;20485;-72
2022/08/06 05:15:33;;;;;;;3.20;1.92;;;;;;;14.23;83.50;102870.06;4946919;28;20647;-64
2022/08/06 05:18:04;;;;;;;3.00;1.58;;;;;;;14.35;83.15;102863.69;4948867;28;20478;-64
2022/08/06 05:20:33;;;;;;;3.78;1.80;;;;;;;14.44;82.58;102873.25;4948533;28;20062;-65
2022/08/06 05:23:04;;;;;;;4.38;1.85;;;;;;;14.51;81.76;102874.88;4966064;28;20034;-65
2022/08/06 05:25:32;;;;;;;3.45;1.60;;;;;;;14.57;81.72;102873.88;4949171;28;20106;-65
2022/08/06 05:27:59;;;;;;;3.13;1.80;;;;;;;14.63;81.49;102873.78;4948960;28;20034;-65
2022/08/06 05:30:24;;;;;;;5.10;2.03;;;;;;;14.69;81.40;102883.41;4948554;28;20050;-65
2022/08/06 05:32:50;;;;;;;4.90;1.73;;;;;;;14.76;81.25;102884.19;4940176;28;20126;-66
2022/08/06 05:35:15;;;;;;;4.47;1.38;;;;;;;14.83;81.02;102888.50;4965358;28;20023;-64
2022/08/06 05:37:40;;;;;;;5.28;1.73;;;;;;;14.91;80.76;102891.84;4966619;28;20113;-65
2022/08/06 05:40:07;;;;;;;5.22;1.58;;;;;;;15.00;80.87;102895.25;4967278;28;20027;-66
2022/08/06 05:42:33;;;;;;;6.03;1.48;;;;;;;15.08;80.21;102898.63;4966673;28;20026;-64
2022/08/06 05:44:58;;;;;;;2.95;1.30;;;;;;;15.15;79.65;102897.59;4948361;28;20100;-64
2022/08/06 05:47:27;;;;;;;2.08;1.15;;;;;;;15.22;79.08;102908.97;4966598;28;20493;-64
2022/08/06 05:49:54;;;;;;;;;;;;;;;15.29;79.01;102904.38;4965760;28;20449;-66
2022/08/06 05:52:47;;;;;;;3.38;1.40;;;;;;;15.35;79.03;102906.06;4949356;28;20008;-65
2022/08/06 05:55:25;;;;;;;2.00;1.13;;;;;;;15.46;78.46;102911.13;4965278;28;20065;-65
2022/08/06 05:57:58;;;;;;;3.57;1.33;;;;;;;15.51;78.20;102911.91;4948626;28;20027;-65
2022/08/06 06:00:26;;;;;;;5.78;1.20;;;;;;;15.63;77.61;102914.28;4948103;28;20110;-65
2022/08/06 06:02:53;;;;;;;5.10;1.38;;;;;;;15.70;77.04;102917.69;4965601;28;20026;-66
2022/08/06 06:05:19;;;;;;;3.65;1.10;;;;;;;15.75;76.24;102921.13;4946649;28;20366;-63
2022/08/06 06:07:45;;;;;;;1.13;0.73;;;;;;;15.88;76.06;102928.81;4948124;28;20050;-65
2022/08/06 06:10:12;;;;;;;6.78;1.10;;;;;;;16.04;75.37;102926.69;4961161;28;20023;-65
2022/08/06 06:12:39;;;;;;;4.35;1.27;;;;;;;16.02;75.20;102924.06;4949025;28;20437;-63
2022/08/06 06:15:05;;;;;;;3.78;1.10;;;;;;;16.09;75.02;102935.47;4949006;28;20034;-64
2022/08/06 06:17:42;;;;;;;4.15;0.85;;;;;;;16.24;75.12;102930.66;4947972;28;20422;-65
2022/08/06 06:20:30;;;;;;;5.75;1.40;;;;;;;16.35;74.51;102936.63;4947119;28;20490;-66
2022/08/06 06:23:15;;;;;;;2.58;1.00;;;;;;;16.52;74.05;102935.28;4965960;28;20027;-64
2022/08/06 06:26:02;;;;;;;3.92;0.98;;;;;;;16.69;73.37;102929.53;4946768;28;20089;-66
2022/08/06 06:28:59;;;;;;;5.28;0.80;;;;;;;16.77;72.45;102932.00;4948526;28;20121;-64
2022/08/06 06:31:40;;;;;;;2.78;1.00;;;;;;;16.83;72.33;102937.16;4924443;28;20457;-64
2022/08/06 06:34:09;;;;;;;3.78;1.38;;;;;;;16.93;71.97;102935.13;4948672;28;20022;-66
2022/08/06 06:36:43;;;;;;;3.38;1.08;;;;;;;16.95;71.44;102937.75;4963444;28;20053;-64
2022/08/06 06:39:31;;;;;;;2.28;1.20;;;;;;;17.03;71.13;102939.28;4948036;28;20031;-64
2022/08/06 06:42:02;;;;;;;4.05;0.98;;;;;;;17.23;70.63;102934.31;4945390;28;20453;-64
2022/08/06 06:44:35;;;;;;;4.47;1.10;;;;;;;17.34;70.11;102937.53;4962561;28;20320;-64
2022/08/06 06:47:07;;;;;;;3.20;0.77;;;;;;;17.48;69.05;102942.47;4948566;28;20022;-65
2022/08/06 06:49:46;;;;;;;1.55;0.75;;;;;;;17.53;69.02;102945.00;4964351;28;20099;-64
2022/08/06 06:52:20;;;;;;;9.32;1.02;;;;;;;17.73;69.11;102948.88;4948434;28;20995;-65
2022/08/06 06:54:47;;;;;;;4.95;1.00;;;;;;;17.86;67.78;102950.22;4947418;28;20030;-66
2022/08/06 06:57:18;;;;;;;3.25;1.30;;;;;;;17.91;67.23;102948.28;4965516;28;20034;-64
2022/08/06 06:59:47;;;;;;;5.15;1.30;;;;;;;18.04;67.19;102950.56;4948061;28;20487;-64
2022/08/06 07:02:19;;;;;;;1.70;1.08;;;;;;;18.06;66.90;102949.59;4948409;28;20061;-66
2022/08/06 07:04:46;;;;;;;4.13;0.82;;;;;;;18.16;66.66;102952.00;4963562;28;20031;-65
2022/08/06 07:07:12;;;;;;;2.92;1.08;;;;;;;18.28;66.62;102945.38;4946686;28;20039;-64
2022/08/06 07:09:38;;;;;;;7.40;1.02;;;;;;;18.41;66.78;102949.38;4960659;28;20106;-67
2022/08/06 07:12:04;;;;;;;1.50;0.93;;;;;;;18.48;66.30;102943.84;4948083;28;20145;-65
2022/08/06 07:14:35;;;;;;;13.07;2.30;;;;;;;18.40;65.90;102952.09;4960313;28;20062;-66
2022/08/06 07:17:02;;;;;;;4.60;1.30;;;;;;;18.42;64.60;102952.91;4963027;28;20013;-66
2022/08/06 07:19:28;;;;;;;4.25;1.10;;;;;;;18.49;63.63;102957.13;4962633;28;20485;-64
2022/08/06 07:21:53;;;;;;;5.53;0.93;;;;;;;18.58;64.46;102957.75;4964890;28;20105;-65
2022/08/06 07:24:23;;;;;;;4.38;1.48;;;;;;;18.77;64.80;102963.31;4947037;28;20107;-66
2022/08/06 07:26:50;;;;;;;3.45;1.13;;;;;;;18.90;64.88;102956.59;4964972;28;20030;-65
2022/08/06 07:29:16;;;;;;;3.13;0.90;;;;;;;19.00;63.16;102966.97;4946629;28;20025;-64
2022/08/06 07:31:41;;;;;;;2.90;1.17;;;;;;;19.07;62.67;102968.50;4949786;28;20049;-65
2022/08/06 07:34:07;;;;;;;2.97;1.00;;;;;;;19.09;62.19;102969.34;4950371;28;20506;-66
2022/08/06 07:36:36;;;;;;;4.18;1.00;;;;;;;19.17;61.18;102969.94;4967515;28;20061;-65
2022/08/06 07:39:08;;;;;;;3.85;1.30;;;;;;;19.01;60.06;102960.69;4964989;28;20038;-64
2022/08/06 07:41:34;;;;;;;3.30;1.27;;;;;;;19.09;60.36;102971.13;4968289;28;20026;-65
2022/08/06 07:44:01;;;;;;;3.55;1.10;;;;;;;19.06;60.40;102967.59;4968660;28;20023;-64
2022/08/06 07:46:31;;;;;;;4.28;1.13;;;;;;;19.30;60.01;102966.81;4946140;28;20033;-65
2022/08/06 07:49:01;;;;;;;2.20;1.00;;;;;;;19.38;59.62;102967.38;4942088;28;20467;-65
2022/08/06 07:51:30;;;;;;;3.58;0.90;;;;;;;19.25;58.11;102969.66;4947899;28;20031;-65
2022/08/06 07:53:57;;;;;;;3.85;0.85;;;;;;;19.23;58.29;102968.81;4951091;28;20058;-65
2022/08/06 07:56:24;;;;;;;4.00;0.90;;;;;;;19.34;58.01;102970.22;4950768;28;20049;-64
2022/08/06 07:58:50;;;;;;;1.67;0.80;;;;;;;19.56;56.17;102967.59;4934723;28;20022;-64
2022/08/06 08:01:16;;;;;;;3.38;1.00;;;;;;;19.53;57.20;102968.59;4965322;28;20027;-65
2022/08/06 08:06:27;;;;;;;1.67;0.68;;;;;;;19.47;58.54;102970.66;4952824;28;20129;-65
2022/08/06 08:09:06;;;;;;;3.50;1.10;;;;;;;19.36;57.29;102977.28;4950481;28;20023;-65
2022/08/06 08:11:32;;;;;;;7.37;1.13;;;;;;;19.61;56.46;102979.00;4967495;28;20489;-67
2022/08/06 08:14:02;;;;;;;6.80;0.98;;;;;;;19.81;56.34;102982.72;4950452;28;20285;-66
2022/08/06 08:16:27;;;;;;;2.95;0.98;;;;;;;19.93;55.73;102976.88;4950716;28;20030;-63
2022/08/06 08:18:54;;;;;;;1.73;0.80;;;;;;;20.15;55.87;102981.41;4966787;28;20308;-67
2022/08/06 08:21:20;;;;;;;4.10;1.15;;;;;;;20.55;55.73;102977.97;4967171;28;20097;-65
2022/08/06 08:23:47;;;;;;;3.50;1.05;;;;;;;20.58;55.22;102978.72;4950424;28;20023;-67
2022/08/06 08:26:12;;;;;;;2.70;0.95;;;;;;;20.76;54.14;102975.31;4950682;28;20075;-64
2022/08/06 08:28:38;;;;;;;2.92;1.30;;;;;;;20.99;53.68;102979.72;4966885;28;20089;-64
2022/08/06 08:31:05;;;;;;;3.40;0.85;;;;;;;21.21;52.67;102979.59;4968435;28;20026;-66
2022/08/06 08:33:32;;;;;;;2.30;0.65;;;;;;;21.48;51.07;102983.75;4945111;28;20035;-67
2022/08/06 08:35:57;;;;;;;3.00;0.80;;;;;;;21.76;50.40;102989.69;4967166;28;20260;-66
2022/08/06 08:38:23;;;;;;;2.40;0.70;;;;;;;21.49;51.01;102984.66;4966140;28;20111;-64
2022/08/06 08:40:51;;;;;;;4.18;0.90;;;;;;;21.49;50.94;102979.28;4966118;28;20027;-64
2022/08/06 08:43:20;;;;;;;4.03;1.20;;;;;;;21.34;52.66;102976.34;4965241;28;20027;-65
2022/08/06 08:45:45;;;;;;;;;;;;;;;21.68;51.19;102981.97;4949737;28;20033;-65
2022/08/06 08:48:11;;;;;;;4.40;1.10;;;;;;;21.62;51.79;102983.13;4949595;28;19914;-66
2022/08/06 08:50:37;;;;;;;4.25;1.10;;;;;;;21.29;52.08;102981.06;4949332;28;20046;-66
2022/08/06 08:53:09;;;;;;;1.65;0.80;;;;;;;21.30;51.46;102977.44;4949762;28;20512;-65
2022/08/06 08:55:35;;;;;;;1.88;1.00;;;;;;;21.11;53.10;102982.75;4967030;28;20065;-66
2022/08/06 08:58:01;;;;;;;1.50;0.98;;;;;;;21.07;51.78;102977.53;4966445;28;20026;-66
2022/08/06 09:00:27;;;;;;;3.30;0.80;;;;;;;21.27;51.09;102980.25;4966854;28;20801;-66
2022/08/06 09:02:53;;;;;;;2.85;0.70;;;;;;;21.32;51.34;102987.16;4965518;28;20031;-66
2022/08/06 09:05:19;;;;;;;0.73;0.60;;;;;;;21.27;51.88;102978.44;4965087;28;20038;-66
2022/08/06 09:07:44;;;;;;;3.60;0.85;;;;;;;21.39;51.21;102987.75;4948374;28;20493;-66
2022/08/06 09:10:10;;;;;;;2.25;0.98;;;;;;;21.31;49.90;102985.41;4965361;28;20033;-66
2022/08/06 09:12:36;;;;;;;0.93;0.68;;;;;;;20.94;50.87;102990.63;4967036;28;20066;-66
2022/08/06 09:15:02;;;;;;;1.58;0.85;;;;;;;21.02;51.49;102984.94;4966335;28;20015;-67
2022/08/06 09:17:28;;;;;;;0.70;0.65;;;;;;;21.43;50.42;102986.66;4943443;28;20508;-65
2022/08/06 09:19:54;;;;;;;2.95;0.80;;;;;;;21.45;48.75;102982.09;4946279;28;20474;-65
2022/08/06 09:22:19;;;;;;;0.98;0.63;;;;;;;21.69;48.44;102989.06;4965539;28;20019;-65
2022/08/06 09:24:45;;;;;;;3.70;0.75;;;;;;;21.89;42.31;102985.47;4967039;28;20426;-65
2022/08/06 09:27:15;;;;;;;0.85;0.35;;;;;;;21.88;42.46;102991.75;4949526;28;20053;-67
2022/08/06 09:29:55;;;;;;;0.95;0.65;;;;;;;21.98;43.29;102985.94;4966560;28;20041;-65
2022/08/06 09:32:56;;;;;;;2.42;0.60;;;;;;;21.76;44.62;102989.69;4966184;28;20052;-65
2022/08/06 09:35:27;;;;;;;0.80;0.50;;;;;;;22.09;42.06;102981.78;4905472;29;20028;-65
2022/08/06 09:38:09;;;;;;;1.10;0.30;;;;;;;21.99;42.47;102982.31;4957088;28;20050;-65
2022/08/06 09:40:34;;;;;;;2.97;0.70;;;;;;;21.98;42.33;102983.28;4966021;28;20035;-65
2022/08/06 09:43:00;;;;;;;0.60;0.32;;;;;;;21.98;41.68;102984.16;4966242;28;20433;-65
2022/08/06 09:45:26;;;;;;;3.67;0.60;;;;;;;22.11;43.08;102981.72;4965278;28;20386;-66
2022/08/06 09:48:01;;;;;;;1.48;0.60;;;;;;;22.01;44.27;102981.31;4966502;28;20030;-65
2022/08/06 09:50:44;;;;;;;3.88;0.88;;;;;;;22.29;45.31;102993.38;4963424;28;20041;-66
2022/08/06 09:53:10;;;;;;;1.27;0.60;;;;;;;22.40;45.06;102987.47;4948787;28;20125;-65
2022/08/06 09:55:36;;;;;;;5.57;0.40;;;;;;;22.65;44.17;102977.28;4965668;28;20058;-66
2022/08/06 09:58:02;;;;;;;1.13;0.50;;;;;;;22.57;43.02;102983.03;4966559;28;20470;-64
2022/08/06 10:00:30;;;;;;;1.42;0.80;;;;;;;21.94;44.65;102979.84;4965394;28;20058;-66
2022/08/06 10:02:57;;;;;;;1.85;0.70;;;;;;;22.02;44.35;102979.47;4965059;28;20031;-67
2022/08/06 10:05:24;;;;;;;2.08;0.73;;;;;;;21.94;44.60;102986.09;4965057;28;20102;-65
2022/08/06 10:08:12;;;;;;;2.75;1.10;;;;;;;21.99;44.26;102987.69;4965836;28;20043;-65
2022/08/06 10:10:48;;;;;;;3.17;0.75;;;;;;;21.95;46.03;102990.50;4966459;28;20030;-64
2022/08/06 10:13:26;;;;;;;2.38;0.70;;;;;;;21.87;45.80;102992.72;4963737;28;20034;-65
2022/08/06 10:15:53;;;;;;;1.40;0.50;;;;;;;22.13;45.30;102987.91;4966100;28;20123;-65
2022/08/06 10:18:41;;;;;;;0.57;0.50;;;;;;;22.34;43.32;102993.13;4965393;28;20022;-65
2022/08/06 10:21:06;;;;;;;2.92;0.45;;;;;;;22.55;41.70;102988.47;4966774;28;20033;-64
2022/08/06 10:23:36;;;;;;;2.15;0.50;;;;;;;22.68;41.13;102994.13;4955962;28;20435;-66
2022/08/06 10:26:10;;;;;;;0.65;0.30;;;;;;;22.73;37.72;102996.59;4958276;28;20497;-67
2022/08/06 10:28:37;;;;;;;1.65;0.30;;;;;;;22.86;38.58;103002.19;4964181;28;20030;-66
2022/08/06 10:31:05;;;;;;;1.15;0.40;;;;;;;22.83;38.58;102986.22;4965858;28;20027;-65
2022/08/06 10:33:51;;;;;;;1.73;0.60;;;;;;;22.79;40.37;102990.88;4963917;28;20027;-65
2022/08/06 10:36:20;;;;;;;3.53;0.55;;;;;;;22.93;40.17;102986.59;4944639;28;20081;-67
2022/08/06 10:38:49;;;;;;;0.77;0.38;;;;;;;22.74;41.08;102981.31;4965371;28;20066;-66
2022/08/06 10:41:15;;;;;;;1.65;0.55;;;;;;;23.01;41.07;102988.88;4948032;28;20034;-65
2022/08/06 10:43:41;;;;;;;4.28;0.80;;;;;;;22.67;41.92;102989.69;4943710;28;20039;-65
2022/08/06 10:46:08;;;;;;;2.20;0.75;;;;;;;22.19;42.37;102982.19;4956762;28;20015;-65
2022/08/06 10:48:35;;;;;;;1.05;0.60;;;;;;;22.08;43.13;102984.56;4964045;28;20035;-65
2022/08/06 10:51:02;;;;;;;3.28;0.90;;;;;;;22.13;42.45;102989.69;4961590;28;20035;-65
2022/08/06 10:53:27;;;;;;;1.08;0.77;;;;;;;22.61;39.18;102990.03;4963891;28;20583;-65
2022/08/06 10:55:53;;;;;;;1.52;0.90;;;;;;;22.56;38.54;102997.41;4965315;28;20037;-65
2022/08/06 10:58:19;;;;;;;1.48;0.57;;;;;;;22.96;39.86;102989.13;4965115;28;20035;-67
2022/08/06 11:00:45;;;;;;;0.98;0.50;;;;;;;23.38;38.02;102976.16;4947563;28;20026;-67
2022/08/06 11:03:27;;;;;;;0.88;0.50;;;;;;;23.83;36.07;102981.75;4965686;28;20031;-64
2022/08/06 11:05:59;;;;;;;1.90;0.90;;;;;;;24.14;34.19;102981.81;4947416;28;20027;-65
2022/08/06 11:08:42;;;;;;;0.55;0.55;;;;;;;23.99;34.40;102983.56;4932075;28;20043;-65
2022/08/06 11:11:24;;;;;;;1.40;0.47;;;;;;;24.16;32.41;102974.53;4959228;28;20824;-65
2022/08/06 11:14:03;;;;;;;2.30;0.60;;;;;;;24.30;34.49;102978.22;4964205;28;20508;-66
2022/08/06 11:16:30;;;;;;;1.05;0.90;;;;;;;24.41;34.83;102975.75;4946303;28;20042;-65
2022/08/06 11:19:09;;;;;;;2.55;0.80;;;;;;;24.10;37.46;102973.03;4961654;28;20478;-66
2022/08/06 11:21:37;;;;;;;1.13;0.70;;;;;;;24.70;35.46;102969.56;4948552;28;20474;-66
2022/08/06 11:24:04;;;;;;;1.23;0.70;;;;;;;24.97;34.47;102966.16;4946354;29;20074;-64
2022/08/06 11:26:35;;;;;;;0.80;0.80;;;;;;;24.81;36.41;102960.84;4963669;28;20086;-66
2022/08/06 11:29:01;;;;;;;2.22;0.93;;;;;;;24.05;35.52;102958.97;4964412;28;20534;-65
2022/08/06 11:31:31;;;;;;;0.80;0.75;;;;;;;24.00;35.14;102977.22;4963370;28;20027;-65
2022/08/06 11:34:03;;;;;;;1.98;1.10;;;;;;;23.94;34.78;102962.28;4946316;28;20089;-65
2022/08/06 11:36:43;;;;;;;1.48;0.90;;;;;;;24.02;35.09;102974.44;4963749;28;20110;-64
2022/08/06 11:39:09;;;;;;;1.85;0.90;;;;;;;23.91;36.40;102977.75;4947837;28;20023;-65